createdAt,value
2023-03-20T00:02:42.132Z,8.20
2023-03-20T00:05:33.562Z,8.30
2023-03-20T00:08:22.628Z,8.30
2023-03-20T00:11:26.608Z,8.30
2023-03-20T00:14:18.020Z,8.20
2023-03-20T00:17:12.135Z,8.20
2023-03-20T00:20:00.786Z,8.20
2023-03-20T00:22:49.773Z,8.10
2023-03-20T00:25:40.169Z,8.20
2023-03-20T00:28:40.801Z,8.20
2023-03-20T00:31:31.757Z,8.30
2023-03-20T00:34:25.949Z,8.30
2023-03-20T00:37:14.715Z,8.30
2023-03-20T00:40:03.346Z,8.30
2023-03-20T00:42:58.379Z,8.30
2023-03-20T00:45:47.362Z,8.40
2023-03-20T00:48:43.460Z,8.50
2023-03-20T00:51:33.842Z,8.40
2023-03-20T00:54:22.435Z,8.30
2023-03-20T00:57:16.578Z,8.40
2023-03-20T01:00:09.566Z,8.40
2023-03-20T01:02:59.228Z,8.40
2023-03-20T01:05:48.460Z,8.40
2023-03-20T01:08:38.489Z,8.30
2023-03-20T01:11:27.155Z,8.40
2023-03-20T01:14:18.061Z,8.40
2023-03-20T01:17:06.920Z,8.40
2023-03-20T01:19:55.540Z,8.40
2023-03-20T01:22:44.260Z,8.40
2023-03-20T01:25:34.720Z,8.40
2023-03-20T01:28:25.210Z,8.40
2023-03-20T01:31:13.859Z,8.50
2023-03-20T01:34:02.444Z,8.40
2023-03-20T01:36:53.145Z,8.40
2023-03-20T01:39:42.021Z,8.40
2023-03-20T01:42:32.571Z,8.40
2023-03-20T01:45:26.014Z,8.50
2023-03-20T01:48:17.891Z,8.40
2023-03-20T01:51:06.917Z,8.40
2023-03-20T01:53:59.192Z,8.40
2023-03-20T01:56:51.254Z,8.30
2023-03-20T01:59:45.426Z,8.30
2023-03-20T02:02:34.560Z,8.20
2023-03-20T02:05:24.421Z,8.20
2023-03-20T02:08:24.055Z,8.10
2023-03-20T02:11:13.439Z,8.10
2023-03-20T02:14:03.840Z,8.00
2023-03-20T02:16:54.142Z,8.00
2023-03-20T02:20:01.730Z,7.90
2023-03-20T02:23:44.091Z,7.90
2023-03-20T02:26:53.623Z,7.80
2023-03-20T02:30:07.411Z,7.80
2023-03-20T02:33:42.735Z,7.70
2023-03-20T02:37:05.414Z,7.60
2023-03-20T02:40:08.860Z,7.60
2023-03-20T02:43:04.502Z,7.50
2023-03-20T02:45:57.919Z,7.50
2023-03-20T02:48:54.581Z,7.40
2023-03-20T02:51:49.389Z,7.40
2023-03-20T02:54:47.257Z,7.50
2023-03-20T02:57:45.465Z,7.50
2023-03-20T03:00:37.742Z,7.40
2023-03-20T03:03:32.717Z,7.30
2023-03-20T03:06:26.275Z,7.30
2023-03-20T03:09:18.732Z,7.30
2023-03-20T03:12:12.541Z,7.30
2023-03-20T03:15:05.058Z,7.30
2023-03-20T03:17:54.080Z,7.20
2023-03-20T03:20:45.234Z,7.20
2023-03-20T03:23:38.039Z,7.30
2023-03-20T03:26:28.886Z,7.20
2023-03-20T03:29:19.924Z,7.20
2023-03-20T03:32:31.336Z,7.20
2023-03-20T03:35:22.474Z,7.20
2023-03-20T03:38:26.555Z,7.20
2023-03-20T03:41:23.838Z,7.20
2023-03-20T03:44:17.418Z,7.30
2023-03-20T03:47:11.606Z,7.20
2023-03-20T03:50:04.683Z,7.10
2023-03-20T03:52:55.449Z,7.20
2023-03-20T03:55:49.141Z,7.20
2023-03-20T03:58:41.733Z,7.20
2023-03-20T04:01:32.576Z,7.10
2023-03-20T04:04:25.539Z,7.10
2023-03-20T04:07:15.616Z,7.20
2023-03-20T04:10:04.656Z,7.20
2023-03-20T04:12:53.332Z,7.10
2023-03-20T04:15:42.540Z,7.20
2023-03-20T04:18:31.181Z,7.20
2023-03-20T04:21:21.437Z,7.20
2023-03-20T04:24:10.206Z,7.20
2023-03-20T04:26:58.760Z,7.10
2023-03-20T04:29:47.793Z,7.10
2023-03-20T04:32:36.404Z,7.10
2023-03-20T04:35:25.078Z,7.00
2023-03-20T04:38:15.364Z,7.00
2023-03-20T04:41:04.377Z,7.00
2023-03-20T04:43:53.010Z,7.00
2023-03-20T04:46:41.636Z,7.00
2023-03-20T04:49:30.250Z,7.00
2023-03-20T04:52:18.835Z,7.00
2023-03-20T04:55:09.841Z,7.00
2023-03-20T04:57:58.424Z,7.10
2023-03-20T05:00:47.131Z,7.10
2023-03-20T05:03:35.761Z,7.10
2023-03-20T05:06:24.373Z,7.10
2023-03-20T05:09:13.035Z,7.10
2023-03-20T05:12:03.254Z,7.10
2023-03-20T05:14:51.986Z,7.10
2023-03-20T05:17:40.746Z,7.10
2023-03-20T05:20:29.374Z,7.10
2023-03-20T05:23:17.948Z,7.10
2023-03-20T05:26:07.500Z,7.10
2023-03-20T05:28:57.521Z,7.10
2023-03-20T05:31:46.105Z,7.10
2023-03-20T05:34:34.734Z,7.10
2023-03-20T05:37:23.340Z,7.10
2023-03-20T05:40:13.764Z,7.10
2023-03-20T05:43:02.419Z,7.10
2023-03-20T05:45:52.598Z,7.10
2023-03-20T05:48:41.173Z,7.10
2023-03-20T05:51:29.850Z,7.10
2023-03-20T05:54:18.600Z,7.10
2023-03-20T05:57:07.245Z,7.10
2023-03-20T05:59:55.888Z,7.10
2023-03-20T06:02:47.508Z,7.10
2023-03-20T06:05:36.778Z,7.00
2023-03-20T06:08:25.842Z,7.10
2023-03-20T06:11:14.517Z,7.10
2023-03-20T06:14:03.177Z,7.20
2023-03-20T06:16:52.279Z,7.20
2023-03-20T06:19:42.282Z,7.30
2023-03-20T06:22:30.902Z,7.30
2023-03-20T06:25:20.743Z,7.40
2023-03-20T06:28:09.336Z,7.50
2023-03-20T06:30:58.113Z,7.50
2023-03-20T06:33:46.739Z,7.50
2023-03-20T06:36:36.783Z,7.50
2023-03-20T06:39:25.394Z,7.50
2023-03-20T06:42:16.168Z,7.50
2023-03-20T06:45:05.625Z,7.40
2023-03-20T06:47:54.207Z,7.40
2023-03-20T06:50:42.853Z,7.50
2023-03-20T06:53:32.850Z,7.50
2023-03-20T06:56:21.474Z,7.50
2023-03-20T06:59:10.112Z,7.50
2023-03-20T07:01:58.898Z,7.50
2023-03-20T07:04:47.965Z,7.60
2023-03-20T07:07:36.551Z,7.60
2023-03-20T07:10:26.791Z,7.80
2023-03-20T07:13:15.590Z,7.90
2023-03-20T07:16:05.393Z,8.00
2023-03-20T07:18:54.199Z,7.90
2023-03-20T07:21:43.024Z,8.00
2023-03-20T07:24:32.186Z,8.10
2023-03-20T07:27:22.550Z,8.20
2023-03-20T07:30:13.415Z,8.20
2023-03-20T07:33:02.048Z,8.10
2023-03-20T07:35:54.887Z,8.20
2023-03-20T07:38:43.513Z,8.10
2023-03-20T07:41:32.257Z,8.20
2023-03-20T07:44:22.463Z,8.30
2023-03-20T07:47:11.411Z,8.30
2023-03-20T07:50:00.032Z,8.30
2023-03-20T07:52:49.557Z,8.20
2023-03-20T07:55:41.079Z,8.10
2023-03-20T07:58:29.777Z,8.10
2023-03-20T08:01:19.843Z,8.20
2023-03-20T08:04:08.838Z,8.20
2023-03-20T08:06:57.620Z,8.30
2023-03-20T08:09:46.450Z,8.50
2023-03-20T08:12:36.702Z,8.60
2023-03-20T08:15:25.362Z,8.80
2023-03-20T08:18:15.404Z,8.90
2023-03-20T08:21:06.234Z,9.00
2023-03-20T08:23:54.876Z,9.00
2023-03-20T08:26:44.367Z,9.10
2023-03-20T08:29:32.988Z,9.20
2023-03-20T08:32:21.623Z,9.40
2023-03-20T08:35:29.715Z,9.50
2023-03-20T08:38:20.625Z,9.40
2023-03-20T08:41:09.619Z,9.40
2023-03-20T08:43:58.243Z,9.30
2023-03-20T08:46:47.561Z,9.40
2023-03-20T08:49:37.037Z,9.50
2023-03-20T08:52:27.923Z,9.90
2023-03-20T08:55:17.321Z,10.00
2023-03-20T08:58:05.980Z,10.30
2023-03-20T09:00:54.855Z,10.60
2023-03-20T09:03:43.431Z,10.80
2023-03-20T09:06:33.249Z,10.70
2023-03-20T09:09:29.385Z,10.70
2023-03-20T09:12:18.739Z,10.70
2023-03-20T09:19:14.926Z,11.20
2023-03-20T09:22:03.692Z,11.00
2023-03-20T09:24:53.942Z,11.00
2023-03-20T09:27:43.043Z,11.00
2023-03-20T09:30:31.763Z,11.10
2023-03-20T09:33:20.474Z,11.20
2023-03-20T09:36:11.743Z,11.20
2023-03-20T09:39:01.016Z,11.00
2023-03-20T09:41:57.553Z,10.70
2023-03-20T09:44:54.844Z,10.50
2023-03-20T09:47:55.755Z,10.40
2023-03-20T09:50:53.228Z,10.30
2023-03-20T09:53:46.427Z,10.30
2023-03-20T09:56:37.624Z,10.10
2023-03-20T09:59:29.408Z,10.00
2023-03-20T10:02:24.571Z,9.80
2023-03-20T10:05:22.504Z,9.60
2023-03-20T10:08:17.112Z,9.50
2023-03-20T10:11:20.265Z,9.60
2023-03-20T10:14:18.732Z,9.70
2023-03-20T10:17:22.166Z,9.80
2023-03-20T10:20:23.201Z,9.80
2023-03-20T10:23:21.568Z,9.80
2023-03-20T10:26:13.203Z,10.00
2023-03-20T10:29:08.056Z,10.10
2023-03-20T10:32:04.760Z,10.40
2023-03-20T10:35:10.139Z,10.80
2023-03-20T10:38:11.666Z,11.10
2023-03-20T10:41:01.036Z,11.20
2023-03-20T10:43:52.285Z,11.30
2023-03-20T10:46:44.854Z,11.60
2023-03-20T10:49:38.576Z,12.00
2023-03-20T10:52:32.468Z,12.00
2023-03-20T10:55:25.710Z,11.90
2023-03-20T10:58:20.530Z,12.00
2023-03-20T11:01:09.659Z,12.00
2023-03-20T11:03:58.364Z,11.90
2023-03-20T11:06:54.396Z,11.90
2023-03-20T11:09:44.626Z,12.00
2023-03-20T11:12:34.892Z,12.00
2023-03-20T11:15:25.689Z,12.10
2023-03-20T11:18:17.063Z,12.10
2023-03-20T11:21:06.375Z,12.20
2023-03-20T11:23:56.668Z,12.00
2023-03-20T11:26:46.739Z,11.90
2023-03-20T11:29:36.267Z,11.80
2023-03-20T11:32:30.529Z,11.80
2023-03-20T11:35:27.673Z,11.80
2023-03-20T11:38:19.234Z,11.60
2023-03-20T11:41:19.645Z,11.30
2023-03-20T11:44:25.574Z,11.20
2023-03-20T11:47:19.905Z,11.20
2023-03-20T11:50:26.002Z,11.20
2023-03-20T11:53:27.309Z,11.20
2023-03-20T11:56:23.764Z,11.10
2023-03-20T11:59:18.312Z,11.10
2023-03-20T12:02:20.128Z,11.20
2023-03-20T12:05:28.499Z,11.40
2023-03-20T12:08:20.401Z,11.60
2023-03-20T12:11:32.914Z,11.60
2023-03-20T12:14:31.745Z,11.60
2023-03-20T12:17:45.592Z,11.60
2023-03-20T12:20:37.888Z,11.50
2023-03-20T12:23:35.851Z,11.50
2023-03-20T12:26:30.239Z,11.50
2023-03-20T12:29:31.695Z,11.50
2023-03-20T12:32:24.785Z,11.50
2023-03-20T12:35:18.932Z,11.50
2023-03-20T12:38:24.454Z,11.60
2023-03-20T12:41:16.216Z,11.40
2023-03-20T12:44:37.585Z,11.50
2023-03-20T12:47:55.102Z,11.40
2023-03-20T12:50:46.467Z,11.20
2023-03-20T12:53:47.298Z,11.10
2023-03-20T12:56:51.626Z,11.10
2023-03-20T12:59:57.850Z,10.90
2023-03-20T13:03:00.296Z,10.90
2023-03-20T13:05:58.058Z,10.90
2023-03-20T13:09:05.148Z,10.90
2023-03-20T13:12:02.018Z,10.80
2023-03-20T13:14:59.868Z,10.70
2023-03-20T13:17:54.494Z,10.60
2023-03-20T13:20:48.048Z,10.40
2023-03-20T13:23:45.613Z,10.50
2023-03-20T13:26:40.031Z,10.50
2023-03-20T13:29:35.425Z,10.60
2023-03-20T13:32:33.551Z,10.70
2023-03-20T13:35:42.642Z,10.60
2023-03-20T13:38:36.440Z,10.60
2023-03-20T13:41:26.547Z,10.60
2023-03-20T13:44:17.231Z,10.80
2023-03-20T13:47:12.583Z,10.90
2023-03-20T13:50:13.742Z,10.90
2023-03-20T13:53:10.230Z,10.90
2023-03-20T13:56:08.867Z,10.80
2023-03-20T13:59:27.818Z,10.60
2023-03-20T14:02:36.831Z,10.60
2023-03-20T14:05:28.777Z,10.50
2023-03-20T14:08:32.521Z,10.30
2023-03-20T14:11:37.370Z,10.40
2023-03-20T14:14:29.319Z,10.20
2023-03-20T14:17:21.076Z,10.10
2023-03-20T14:20:21.646Z,10.10
2023-03-20T14:23:20.664Z,10.20
2023-03-20T14:26:21.811Z,10.10
2023-03-20T14:29:33.766Z,10.30
2023-03-20T14:32:37.607Z,10.50
2023-03-20T14:35:29.154Z,10.40
2023-03-20T14:38:25.343Z,10.50
2023-03-20T14:41:18.277Z,10.40
2023-03-20T14:44:20.991Z,10.30
2023-03-20T14:47:19.008Z,10.20
2023-03-20T14:50:14.733Z,10.00
2023-03-20T14:53:14.992Z,9.90
2023-03-20T14:56:10.904Z,9.80
2023-03-20T14:59:03.375Z,9.80
2023-03-20T15:01:59.262Z,9.70
2023-03-20T15:04:48.692Z,9.70
2023-03-20T15:07:40.313Z,9.60
2023-03-20T15:10:29.094Z,9.50
2023-03-20T15:13:20.659Z,9.50
2023-03-20T15:16:11.796Z,9.50
2023-03-20T15:19:01.061Z,9.50
2023-03-20T15:21:50.531Z,9.50
2023-03-20T15:24:39.236Z,9.50
2023-03-20T15:27:30.803Z,9.50
2023-03-20T15:30:23.394Z,9.50
2023-03-20T15:33:18.798Z,9.50
2023-03-20T15:36:13.091Z,9.50
2023-03-20T15:39:08.700Z,9.50
2023-03-20T15:41:59.470Z,9.50
2023-03-20T15:44:49.386Z,9.50
2023-03-20T15:47:39.480Z,9.40
2023-03-20T15:50:28.290Z,9.30
2023-03-20T15:53:21.005Z,9.30
2023-03-20T15:56:18.549Z,9.10
2023-03-20T15:59:14.239Z,9.10
2023-03-20T16:02:04.799Z,9.00
2023-03-20T16:04:56.490Z,9.00
2023-03-20T16:07:45.521Z,8.90
2023-03-20T16:10:36.599Z,8.90
2023-03-20T16:13:27.103Z,8.90
2023-03-20T16:16:18.086Z,9.00
2023-03-20T16:19:09.556Z,9.10
2023-03-20T16:22:01.586Z,9.20
2023-03-20T16:24:52.485Z,9.30
2023-03-20T16:27:42.468Z,9.30
2023-03-20T16:30:33.506Z,9.20
2023-03-20T16:33:22.302Z,9.10
2023-03-20T16:36:18.976Z,8.90
2023-03-20T16:39:11.760Z,8.70
2023-03-20T16:42:24.092Z,8.70
2023-03-20T16:45:26.514Z,8.60
2023-03-20T16:48:33.348Z,8.60
2023-03-20T16:51:25.436Z,8.40
2023-03-20T16:54:21.758Z,8.30
2023-03-20T16:57:15.895Z,8.30
2023-03-20T17:00:08.439Z,8.30
2023-03-20T17:03:07.158Z,8.20
2023-03-20T17:05:58.055Z,8.20
2023-03-20T17:08:50.271Z,8.20
2023-03-20T17:11:46.305Z,8.10
2023-03-20T17:14:35.141Z,8.10
2023-03-20T17:17:25.923Z,8.00
2023-03-20T17:20:21.264Z,8.00
2023-03-20T17:23:14.997Z,8.00
2023-03-20T17:26:03.705Z,8.00
2023-03-20T17:28:53.875Z,8.00
2023-03-20T17:31:42.672Z,8.00
2023-03-20T17:34:31.466Z,7.90
2023-03-20T17:37:27.147Z,7.90
2023-03-20T17:40:21.155Z,7.90
2023-03-20T17:43:12.659Z,7.90
2023-03-20T17:46:02.963Z,7.80
2023-03-20T17:48:52.596Z,7.90
2023-03-20T17:51:41.317Z,7.80
2023-03-20T17:54:29.978Z,7.90
2023-03-20T17:57:23.340Z,7.90
2023-03-20T18:00:16.754Z,7.80
2023-03-20T18:03:06.915Z,7.80
2023-03-20T18:05:56.966Z,7.90
2023-03-20T18:08:45.872Z,7.90
2023-03-20T18:11:34.595Z,7.80
2023-03-20T18:14:23.272Z,7.80
2023-03-20T18:17:13.900Z,7.80
2023-03-20T18:20:03.989Z,7.80
2023-03-20T18:22:52.680Z,7.80
2023-03-20T18:25:41.583Z,7.70
2023-03-20T18:28:30.543Z,7.70
2023-03-20T18:31:19.922Z,7.70
2023-03-20T18:34:08.874Z,7.70
2023-03-20T18:36:58.971Z,7.60
2023-03-20T18:39:47.628Z,7.60
2023-03-20T18:42:36.439Z,7.60
2023-03-20T18:45:26.409Z,7.60
2023-03-20T18:48:16.240Z,7.50
2023-03-20T18:51:05.116Z,7.60
2023-03-20T18:53:55.187Z,7.50
2023-03-20T18:56:43.997Z,7.50
2023-03-20T18:59:32.691Z,7.50
2023-03-20T19:02:21.366Z,7.60
2023-03-20T19:05:11.569Z,7.60
2023-03-20T19:08:01.073Z,7.50
2023-03-20T19:10:51.761Z,7.40
2023-03-20T19:13:40.468Z,7.40
2023-03-20T19:16:30.905Z,7.40
2023-03-20T19:19:19.632Z,7.30
2023-03-20T19:22:13.083Z,7.20
2023-03-20T19:25:05.848Z,7.10
2023-03-20T19:27:55.955Z,7.00
2023-03-20T19:30:44.614Z,7.00
2023-03-20T19:33:33.630Z,7.00
2023-03-20T19:36:26.881Z,7.00
2023-03-20T19:39:16.215Z,6.90
2023-03-20T19:42:32.193Z,6.90
2023-03-20T19:45:16.214Z,6.90
2023-03-20T19:48:12.632Z,6.90
2023-03-20T19:51:01.656Z,6.80
2023-03-20T19:53:51.670Z,6.80
2023-03-20T19:56:40.583Z,6.90
2023-03-20T19:59:29.733Z,6.90
2023-03-20T20:02:22.805Z,6.90
2023-03-20T20:05:20.417Z,6.90
2023-03-20T20:11:18.778Z,6.90
2023-03-20T20:14:10.594Z,6.90
2023-03-20T20:17:02.342Z,6.90
2023-03-20T20:19:54.468Z,6.90
2023-03-20T20:22:43.403Z,6.90
2023-03-20T20:25:32.100Z,6.90
2023-03-20T20:28:22.707Z,6.90
2023-03-20T20:31:11.378Z,6.90
2023-03-20T20:34:52.759Z,6.90
2023-03-20T20:37:53.764Z,7.00
2023-03-20T20:40:21.391Z,6.90
2023-03-20T20:43:11.112Z,6.90
2023-03-20T20:45:59.817Z,7.00
2023-03-20T20:48:48.570Z,6.90
2023-03-20T20:51:37.249Z,7.00
2023-03-20T20:54:27.803Z,7.00
2023-03-20T20:57:16.561Z,6.90
2023-03-20T21:00:07.468Z,7.00
2023-03-20T21:02:56.206Z,7.00
2023-03-20T21:05:44.906Z,7.00
2023-03-20T21:08:34.865Z,7.00
2023-03-20T21:11:25.387Z,7.00
2023-03-20T21:14:15.153Z,7.00
2023-03-20T21:17:04.404Z,7.00
2023-03-20T21:19:53.343Z,7.00
2023-03-20T21:22:42.308Z,7.00
2023-03-20T21:25:47.821Z,7.00
2023-03-20T21:28:38.417Z,7.00
2023-03-20T21:31:31.056Z,7.00
2023-03-20T21:34:20.177Z,7.00
2023-03-20T21:38:15.786Z,7.00
2023-03-20T21:40:18.219Z,6.90
2023-03-20T21:43:07.533Z,6.90
2023-03-20T21:46:35.198Z,6.90
2023-03-20T21:56:23.205Z,6.90
2023-03-20T21:59:19.603Z,6.90
2023-03-20T22:02:09.320Z,6.90
2023-03-20T22:18:12.119Z,7.00
2023-03-20T22:21:30.043Z,7.00
2023-03-20T22:31:09.021Z,7.00
2023-03-20T22:34:09.837Z,7.00
2023-03-20T22:37:37.461Z,7.00
2023-03-20T22:40:43.253Z,7.00
2023-03-20T22:43:16.357Z,6.90
2023-03-20T22:46:08.106Z,6.90
2023-03-20T22:49:02.267Z,6.80
2023-03-20T22:52:08.263Z,6.80
2023-03-20T22:55:01.085Z,6.70
2023-03-20T22:58:03.875Z,6.80
2023-03-20T23:00:55.240Z,6.70
2023-03-20T23:03:44.068Z,6.70
2023-03-20T23:06:34.142Z,6.70
2023-03-20T23:09:22.861Z,6.70
2023-03-20T23:12:11.592Z,6.70
2023-03-20T23:15:00.633Z,6.70
2023-03-20T23:17:49.322Z,6.70
2023-03-20T23:20:38.194Z,6.80
2023-03-20T23:23:29.471Z,6.70
2023-03-20T23:26:21.149Z,6.80
2023-03-20T23:29:09.879Z,6.80
2023-03-20T23:31:58.583Z,6.80
2023-03-20T23:34:47.347Z,6.90
2023-03-20T23:37:36.939Z,6.90
2023-03-20T23:40:27.204Z,6.90
2023-03-20T23:43:15.996Z,6.90
2023-03-20T23:46:04.896Z,7.00
2023-03-20T23:48:53.638Z,6.90
2023-03-20T23:51:42.361Z,6.90
2023-03-20T23:54:31.123Z,7.00
2023-03-20T23:57:21.349Z,6.90
